createdAt,value
2022-09-07T00:00:52.592Z,77.74047852
2022-09-07T00:01:53.052Z,77.63671875
2022-09-07T00:02:53.553Z,77.74047852
2022-09-07T00:03:54.440Z,77.74047852
2022-09-07T00:04:54.847Z,77.74047852
2022-09-07T00:05:55.230Z,77.94189453
2022-09-07T00:06:55.694Z,78.03955078
2022-09-07T00:07:56.126Z,78.07617188
2022-09-07T00:08:56.557Z,78.03955078
2022-09-07T00:09:57.446Z,77.87475586
2022-09-07T00:11:28.584Z,77.83813477
2022-09-07T00:12:29.033Z,77.87475586
2022-09-07T00:13:29.482Z,77.74047852
2022-09-07T00:14:30.699Z,77.63671875
2022-09-07T00:15:31.144Z,77.5390625
2022-09-07T00:16:31.583Z,77.44140625
2022-09-07T00:17:31.966Z,77.5390625
2022-09-07T00:18:32.408Z,77.74047852
2022-09-07T00:19:32.838Z,77.74047852
2022-09-07T00:20:33.270Z,77.44140625
2022-09-07T00:21:33.716Z,77.13623047
2022-09-07T00:22:34.166Z,77.13623047
2022-09-07T00:23:34.599Z,77.13623047
2022-09-07T00:24:35.585Z,77.23999023
2022-09-07T00:25:36.005Z,77.27661133
2022-09-07T00:26:36.371Z,77.37426758
2022-09-07T00:27:36.836Z,77.47802734
2022-09-07T00:28:37.275Z,77.57568359
2022-09-07T00:29:38.600Z,77.57568359
2022-09-07T00:30:39.017Z,77.57568359
2022-09-07T00:31:39.455Z,77.47802734
2022-09-07T00:32:39.898Z,77.67333984
2022-09-07T00:33:40.314Z,77.87475586
2022-09-07T00:34:41.702Z,77.97851563
2022-09-07T00:35:42.148Z,78.07617188
2022-09-07T00:36:43.122Z,78.07617188
2022-09-07T00:37:43.545Z,78.07617188
2022-09-07T00:38:43.954Z,78.07617188
2022-09-07T00:39:44.934Z,78.17993164
2022-09-07T00:40:45.310Z,78.47900391
2022-09-07T00:41:45.674Z,78.68041992
2022-09-07T00:42:46.171Z,78.77807617
2022-09-07T00:43:47.090Z,78.97949219
2022-09-07T00:44:48.104Z,78.97949219
2022-09-07T00:45:48.523Z,79.07714844
2022-09-07T00:46:49.070Z,79.07714844
2022-09-07T00:47:49.422Z,78.97949219
2022-09-07T00:48:49.845Z,78.77807617
2022-09-07T00:49:50.901Z,78.68041992
2022-09-07T00:50:51.420Z,78.57666016
2022-09-07T00:51:51.694Z,78.57666016
2022-09-07T00:52:52.178Z,78.47900391
2022-09-07T00:53:53.396Z,78.37524414
2022-09-07T00:54:53.817Z,78.37524414
2022-09-07T00:55:54.361Z,78.37524414
2022-09-07T00:56:54.644Z,78.47900391
2022-09-07T00:57:55.124Z,78.68041992
2022-09-07T00:58:55.551Z,78.88183594
2022-09-07T00:59:55.958Z,78.97949219
2022-09-07T01:00:56.819Z,78.97949219
2022-09-07T01:02:27.510Z,79.07714844
2022-09-07T01:03:27.827Z,79.27856445
2022-09-07T01:04:29.166Z,79.27856445
2022-09-07T01:05:29.557Z,79.38232422
2022-09-07T01:06:30.933Z,79.27856445
2022-09-07T01:07:31.308Z,78.97949219
2022-09-07T01:08:31.999Z,78.77807617
2022-09-07T01:09:32.238Z,78.88183594
2022-09-07T01:10:32.633Z,79.07714844
2022-09-07T01:11:33.077Z,79.1809082
2022-09-07T01:12:33.440Z,79.41894531
2022-09-07T01:13:33.907Z,79.41894531
2022-09-07T01:14:35.109Z,79.51660156
2022-09-07T01:15:35.580Z,79.62036133
2022-09-07T01:16:35.951Z,79.82177734
2022-09-07T01:17:36.355Z,79.77905273
2022-09-07T01:18:36.897Z,79.68139648
2022-09-07T01:19:37.252Z,79.47998047
2022-09-07T01:20:37.666Z,79.57763672
2022-09-07T01:21:38.632Z,79.68139648
2022-09-07T01:22:38.998Z,79.77905273
2022-09-07T01:23:39.420Z,79.77905273
2022-09-07T01:24:40.599Z,79.68139648
2022-09-07T01:25:41.059Z,79.57763672
2022-09-07T01:26:41.763Z,79.47998047
2022-09-07T01:27:42.152Z,79.47998047
2022-09-07T01:28:42.587Z,79.38232422
2022-09-07T01:29:43.034Z,79.27856445
2022-09-07T01:30:43.533Z,79.38232422
2022-09-07T01:31:43.894Z,79.38232422
2022-09-07T01:32:44.294Z,79.47998047
2022-09-07T01:33:44.733Z,79.47998047
2022-09-07T01:34:46.135Z,79.57763672
2022-09-07T01:35:46.544Z,79.68139648
2022-09-07T01:36:46.935Z,79.77905273
2022-09-07T01:37:47.360Z,79.8828125
2022-09-07T01:38:47.759Z,79.8828125
2022-09-07T01:39:48.338Z,79.8828125
2022-09-07T01:40:48.671Z,79.98046875
2022-09-07T01:41:49.115Z,80.08422852
2022-09-07T01:42:49.498Z,80.27954102
2022-09-07T01:43:50.607Z,80.38330078
2022-09-07T01:44:51.665Z,80.38330078
2022-09-07T01:45:52.088Z,80.38330078
2022-09-07T01:46:52.500Z,80.27954102
2022-09-07T01:47:52.881Z,80.48095703
2022-09-07T01:48:53.263Z,80.68237305
2022-09-07T01:49:53.729Z,80.78613281
2022-09-07T01:50:54.904Z,80.88378906
2022-09-07T01:51:55.352Z,80.88378906
2022-09-07T01:52:56.185Z,80.88378906
2022-09-07T01:54:27.410Z,80.88378906
2022-09-07T01:55:27.853Z,80.88378906
2022-09-07T01:56:28.266Z,80.88378906
2022-09-07T01:57:28.672Z,80.88378906
2022-09-07T01:58:29.166Z,80.88378906
2022-09-07T01:59:29.444Z,80.88378906
2022-09-07T02:00:29.927Z,80.68237305
2022-09-07T02:01:30.380Z,80.78613281
2022-09-07T02:02:31.777Z,80.88378906
2022-09-07T02:03:32.006Z,80.88378906
2022-09-07T02:04:32.407Z,80.88378906
2022-09-07T02:05:33.680Z,80.98144531
2022-09-07T02:06:34.091Z,80.98144531
2022-09-07T02:07:34.631Z,80.98144531
2022-09-07T02:08:34.909Z,81.08520508
2022-09-07T02:09:35.301Z,81.08520508
2022-09-07T02:10:35.731Z,81.08520508
2022-09-07T02:11:36.173Z,81.18286133
2022-09-07T02:12:36.616Z,81.28662109
2022-09-07T02:13:36.980Z,81.18286133
2022-09-07T02:14:37.903Z,81.18286133
2022-09-07T02:15:38.416Z,81.18286133
2022-09-07T02:16:38.768Z,81.18286133
2022-09-07T02:17:39.239Z,81.18286133
2022-09-07T02:18:39.640Z,81.18286133
2022-09-07T02:19:40.036Z,81.08520508
2022-09-07T02:20:40.511Z,80.98144531
2022-09-07T02:21:41.702Z,80.68237305
2022-09-07T02:22:42.251Z,80.78613281
2022-09-07T02:23:42.587Z,80.78613281
2022-09-07T02:24:43.918Z,80.78613281
2022-09-07T02:25:44.964Z,80.78613281
2022-09-07T02:26:45.410Z,80.78613281
2022-09-07T02:27:45.881Z,80.78613281
2022-09-07T02:28:46.263Z,80.68237305
2022-09-07T02:29:46.654Z,80.68237305
2022-09-07T02:30:47.081Z,80.5847168
2022-09-07T02:31:47.504Z,80.5847168
2022-09-07T02:32:47.944Z,80.38330078
2022-09-07T02:33:48.313Z,80.18188477
2022-09-07T02:34:49.411Z,80.18188477
2022-09-07T02:35:49.811Z,80.18188477
2022-09-07T02:36:50.268Z,80.08422852
2022-09-07T02:37:50.791Z,80.18188477
2022-09-07T02:38:51.083Z,79.98046875
2022-09-07T02:39:51.572Z,79.8828125
2022-09-07T02:40:51.894Z,79.77905273
2022-09-07T02:41:52.324Z,79.68139648
2022-09-07T02:42:53.638Z,79.68139648
2022-09-07T02:43:54.040Z,79.57763672
2022-09-07T02:44:54.445Z,79.38232422
2022-09-07T02:45:54.932Z,79.38232422
2022-09-07T02:47:25.826Z,79.38232422
2022-09-07T02:48:26.266Z,79.27856445
2022-09-07T02:49:26.646Z,78.97949219
2022-09-07T02:50:27.025Z,78.97949219
2022-09-07T02:51:27.425Z,79.07714844
2022-09-07T02:52:27.878Z,79.07714844
2022-09-07T02:53:28.377Z,79.07714844
2022-09-07T02:54:28.758Z,79.27856445
2022-09-07T02:55:30.137Z,79.27856445
2022-09-07T02:56:30.611Z,79.1809082
2022-09-07T02:57:31.098Z,79.27856445
2022-09-07T02:58:31.711Z,79.41894531
2022-09-07T02:59:31.948Z,79.62036133
2022-09-07T03:00:32.330Z,79.71801758
2022-09-07T03:01:32.799Z,79.71801758
2022-09-07T03:02:33.262Z,79.71801758
2022-09-07T03:03:33.610Z,79.82177734
2022-09-07T03:04:34.926Z,79.91943359
2022-09-07T03:05:35.910Z,79.82177734
2022-09-07T03:06:36.307Z,79.82177734
2022-09-07T03:07:39.042Z,79.71801758
2022-09-07T03:08:37.215Z,79.71801758
2022-09-07T03:09:37.615Z,79.91943359
2022-09-07T03:10:38.018Z,79.91943359
2022-09-07T03:11:38.400Z,80.12084961
2022-09-07T03:12:39.429Z,80.62133789
2022-09-07T03:13:39.894Z,81.06079102
2022-09-07T03:14:40.922Z,81.02416992
2022-09-07T03:15:41.680Z,81.06079102
2022-09-07T03:16:42.031Z,81.06079102
2022-09-07T03:17:42.424Z,81.06079102
2022-09-07T03:18:42.905Z,81.15844727
2022-09-07T03:19:43.285Z,81.06079102
2022-09-07T03:20:43.754Z,80.96313477
2022-09-07T03:21:45.134Z,80.96313477
2022-09-07T03:22:45.509Z,80.96313477
2022-09-07T03:23:51.183Z,81.06079102
2022-09-07T03:24:46.926Z,81.06079102
2022-09-07T03:25:47.349Z,81.15844727
2022-09-07T03:26:47.756Z,81.06079102
2022-09-07T03:27:48.153Z,80.96313477
2022-09-07T03:28:48.629Z,80.859375
2022-09-07T03:29:48.998Z,80.65795898
2022-09-07T03:30:49.452Z,80.65795898
2022-09-07T03:31:49.824Z,80.32226563
2022-09-07T03:32:50.221Z,80.56030273
2022-09-07T03:33:50.689Z,80.56030273
2022-09-07T03:34:51.652Z,80.76171875
2022-09-07T03:35:52.640Z,80.76171875
2022-09-07T03:36:53.076Z,80.859375
2022-09-07T03:37:53.468Z,80.76171875
2022-09-07T03:38:53.922Z,80.859375
2022-09-07T03:39:55.505Z,80.76171875
2022-09-07T03:41:26.111Z,80.76171875
2022-09-07T03:42:26.523Z,80.65795898
2022-09-07T03:43:26.936Z,80.56030273
2022-09-07T03:44:27.411Z,80.45654297
2022-09-07T03:45:28.632Z,80.35888672
2022-09-07T03:46:29.146Z,80.45654297
2022-09-07T03:47:29.473Z,80.26123047
2022-09-07T03:48:30.149Z,80.05981445
2022-09-07T03:49:30.327Z,80.05981445
2022-09-07T03:50:30.745Z,80.05981445
2022-09-07T03:51:31.175Z,79.95605469
2022-09-07T03:52:31.555Z,79.95605469
2022-09-07T03:53:32.623Z,79.85839844
2022-09-07T03:54:35.793Z,79.89501953
2022-09-07T03:55:34.109Z,79.89501953
2022-09-07T03:56:34.500Z,79.65698242
2022-09-07T03:57:34.916Z,79.65698242
2022-09-07T03:58:35.339Z,79.65698242
2022-09-07T03:59:35.779Z,79.55322266
2022-09-07T04:00:36.163Z,79.55322266
2022-09-07T04:01:36.602Z,79.89501953
2022-09-07T04:02:36.982Z,79.99267578
2022-09-07T04:03:37.337Z,79.99267578
2022-09-07T04:04:37.748Z,79.89501953
2022-09-07T04:05:38.633Z,79.99267578
2022-09-07T04:06:39.060Z,80.09643555
2022-09-07T04:07:39.427Z,79.99267578
2022-09-07T04:08:39.809Z,79.99267578
2022-09-07T04:09:40.219Z,80.09643555
2022-09-07T04:10:40.609Z,80.1940918
2022-09-07T04:11:41.018Z,80.39550781
2022-09-07T04:12:41.687Z,80.49926758
2022-09-07T04:13:42.622Z,80.53588867
2022-09-07T04:14:43.030Z,80.63354492
2022-09-07T04:15:44.132Z,80.73730469
2022-09-07T04:16:44.651Z,80.29785156
2022-09-07T04:17:44.964Z,80.09643555
2022-09-07T04:18:45.366Z,80.23681641
2022-09-07T04:19:45.784Z,80.43212891
2022-09-07T04:20:46.173Z,80.43212891
2022-09-07T04:21:47.126Z,80.43212891
2022-09-07T04:22:50.422Z,80.39550781
2022-09-07T04:23:47.932Z,80.29785156
2022-09-07T04:24:48.347Z,80.09643555
2022-09-07T04:25:49.636Z,79.89501953
2022-09-07T04:26:50.036Z,79.69360352
2022-09-07T04:27:50.415Z,79.59594727
2022-09-07T04:28:50.842Z,79.59594727
2022-09-07T04:29:52.066Z,79.69360352
2022-09-07T04:30:52.403Z,79.79736328
2022-09-07T04:31:52.744Z,79.89501953
2022-09-07T04:32:53.129Z,79.69360352
2022-09-07T04:33:54.041Z,79.59594727
2022-09-07T04:35:24.615Z,79.79736328
2022-09-07T04:36:25.012Z,80.03540039
2022-09-07T04:37:25.370Z,79.59594727
2022-09-07T04:38:25.797Z,79.59594727
2022-09-07T04:39:26.192Z,79.59594727
2022-09-07T04:40:26.623Z,79.69360352
2022-09-07T04:41:26.982Z,79.39453125
2022-09-07T04:42:27.394Z,79.63256836
2022-09-07T04:43:28.722Z,79.63256836
2022-09-07T04:44:29.051Z,79.63256836
2022-09-07T04:45:30.454Z,79.63256836
2022-09-07T04:46:30.878Z,79.63256836
2022-09-07T04:47:31.265Z,79.63256836
2022-09-07T04:48:31.887Z,79.63256836
2022-09-07T04:49:32.069Z,79.83398438
2022-09-07T04:50:32.512Z,80.07202148
2022-09-07T04:51:32.918Z,80.16967773
2022-09-07T04:52:33.950Z,80.57250977
2022-09-07T04:53:34.344Z,80.67626953
2022-09-07T04:54:34.726Z,80.77392578
2022-09-07T04:55:35.948Z,80.87768555
2022-09-07T04:56:36.369Z,80.87768555
2022-09-07T04:57:36.761Z,81.17675781
2022-09-07T04:58:37.140Z,80.9387207
2022-09-07T04:59:37.523Z,80.73730469
2022-09-07T05:00:37.938Z,80.63354492
2022-09-07T05:01:38.422Z,80.53588867
2022-09-07T05:02:38.765Z,80.73730469
2022-09-07T05:03:39.092Z,80.53588867
2022-09-07T05:04:39.547Z,80.33447266
2022-09-07T05:05:40.449Z,80.03540039
2022-09-07T05:06:40.833Z,80.13305664
2022-09-07T05:07:41.427Z,79.93164063
2022-09-07T05:08:41.868Z,79.63256836
2022-09-07T05:09:42.297Z,79.52880859
2022-09-07T05:10:42.751Z,79.43115234
2022-09-07T05:11:43.146Z,79.43115234
2022-09-07T05:12:43.546Z,79.73022461
2022-09-07T05:13:43.968Z,80.33447266
2022-09-07T05:14:44.358Z,79.93164063
2022-09-07T05:15:45.475Z,79.63256836
2022-09-07T05:16:45.940Z,79.43115234
2022-09-07T05:17:46.257Z,79.43115234
2022-09-07T05:18:46.651Z,79.43115234
2022-09-07T05:19:47.040Z,79.22973633
2022-09-07T05:20:47.478Z,78.8269043
2022-09-07T05:21:47.842Z,78.62548828
2022-09-07T05:22:48.231Z,78.42407227
2022-09-07T05:23:48.668Z,78.32641602
2022-09-07T05:24:49.104Z,78.52783203
2022-09-07T05:25:49.525Z,78.42407227
2022-09-07T05:26:49.951Z,78.52783203
2022-09-07T05:27:50.329Z,78.72924805
2022-09-07T05:28:50.795Z,78.72924805
2022-09-07T05:31:17.792Z,78.8269043
2022-09-07T05:31:52.010Z,78.72924805
2022-09-07T05:32:52.390Z,78.93066406
2022-09-07T05:35:23.814Z,78.72924805
2022-09-07T05:36:25.193Z,78.62548828
2022-09-07T05:37:25.575Z,78.72924805
2022-09-07T05:38:25.993Z,78.62548828
2022-09-07T05:39:26.399Z,78.8269043
2022-09-07T05:40:26.778Z,78.8269043
2022-09-07T05:41:27.189Z,79.02832031
2022-09-07T05:42:27.568Z,79.22973633
2022-09-07T05:43:27.968Z,79.13208008
2022-09-07T05:44:45.169Z,79.22973633
2022-09-07T05:45:29.583Z,79.13208008
2022-09-07T05:46:30.672Z,79.22973633
2022-09-07T05:47:31.109Z,79.43115234
2022-09-07T05:48:31.711Z,79.43115234
2022-09-07T05:49:31.917Z,79.22973633
2022-09-07T05:50:32.315Z,79.02832031
2022-09-07T05:51:32.729Z,79.02832031
2022-09-07T05:52:33.105Z,79.02832031
2022-09-07T05:53:33.517Z,78.99169922
2022-09-07T05:54:33.915Z,78.99169922
2022-09-07T05:55:34.335Z,79.08935547
2022-09-07T05:56:35.697Z,79.19311523
2022-09-07T05:57:36.066Z,79.19311523
2022-09-07T05:58:36.461Z,79.29077148
2022-09-07T05:59:36.857Z,79.19311523
2022-09-07T06:00:37.245Z,79.19311523
2022-09-07T06:01:37.787Z,79.05273438
2022-09-07T06:02:39.871Z,78.95507813
2022-09-07T06:03:39.052Z,79.15649414
2022-09-07T06:04:39.443Z,79.35791016
2022-09-07T06:05:40.472Z,79.45556641
2022-09-07T06:06:40.960Z,79.45556641
2022-09-07T06:07:41.527Z,79.45556641
2022-09-07T06:08:42.647Z,79.55322266
2022-09-07T06:10:43.844Z,79.75463867
2022-09-07T06:11:43.995Z,79.85839844
2022-09-07T06:12:46.916Z,79.75463867
2022-09-07T06:13:44.704Z,79.75463867
2022-09-07T06:14:45.091Z,79.75463867
2022-09-07T06:15:46.459Z,79.65698242
2022-09-07T06:16:46.970Z,79.85839844
2022-09-07T06:17:47.282Z,79.95605469
2022-09-07T06:18:47.697Z,79.85839844
2022-09-07T06:19:48.110Z,79.85839844
2022-09-07T06:20:48.507Z,79.85839844
2022-09-07T06:21:49.699Z,79.75463867
2022-09-07T06:22:50.130Z,79.75463867
2022-09-07T06:23:50.520Z,79.45556641
2022-09-07T06:24:50.909Z,79.25415039
2022-09-07T06:25:51.961Z,79.55322266
2022-09-07T06:27:22.851Z,79.45556641
2022-09-07T06:28:23.245Z,79.45556641
2022-09-07T06:29:23.637Z,79.55322266
2022-09-07T06:30:24.039Z,79.45556641
2022-09-07T06:31:24.488Z,79.51660156
2022-09-07T06:33:25.284Z,79.41894531
2022-09-07T06:34:25.643Z,79.31518555
2022-09-07T06:35:26.041Z,79.11987305
2022-09-07T06:36:27.159Z,78.91845703
2022-09-07T06:37:27.589Z,79.01611328
2022-09-07T06:38:31.716Z,79.01611328
2022-09-07T06:39:28.349Z,79.01611328
2022-09-07T06:40:29.666Z,79.01611328
2022-09-07T06:41:59.198Z,79.11987305
2022-09-07T06:42:30.596Z,79.2175293
2022-09-07T06:43:31.077Z,79.41894531
2022-09-07T06:44:31.438Z,79.31518555
2022-09-07T06:45:31.881Z,79.2175293
2022-09-07T06:47:32.692Z,79.2175293
2022-09-07T06:48:33.195Z,79.11987305
2022-09-07T06:49:33.470Z,79.11987305
2022-09-07T06:50:33.875Z,79.01611328
2022-09-07T06:51:35.175Z,79.01611328
2022-09-07T06:53:37.576Z,79.11987305
2022-09-07T06:55:00.982Z,79.31518555
2022-09-07T06:55:36.850Z,79.41894531
2022-09-07T06:56:38.180Z,79.31518555
2022-09-07T06:57:38.676Z,79.31518555
2022-09-07T06:58:42.306Z,79.31518555
2022-09-07T06:59:39.462Z,79.31518555
2022-09-07T07:00:40.703Z,79.31518555
2022-09-07T07:01:41.062Z,79.11987305
2022-09-07T07:02:41.791Z,79.11987305
2022-09-07T07:03:42.287Z,79.11987305
2022-09-07T07:04:42.588Z,79.2175293
2022-09-07T07:05:43.053Z,79.31518555
2022-09-07T07:06:44.243Z,79.41894531
2022-09-07T07:07:44.735Z,79.31518555
2022-09-07T07:08:45.112Z,79.01611328
2022-09-07T07:09:45.547Z,78.91845703
2022-09-07T07:10:45.969Z,78.91845703
2022-09-07T07:11:46.375Z,78.91845703
2022-09-07T07:12:46.843Z,79.01611328
2022-09-07T07:13:47.209Z,79.01611328
2022-09-07T07:14:48.282Z,79.01611328
2022-09-07T07:15:48.635Z,79.11987305
2022-09-07T07:16:49.810Z,79.31518555
2022-09-07T07:17:58.053Z,79.31518555
2022-09-07T07:18:50.492Z,79.2175293
2022-09-07T07:19:50.970Z,79.2175293
2022-09-07T07:20:52.477Z,79.2175293
2022-09-07T07:22:45.610Z,79.1809082
2022-09-07T07:23:23.481Z,79.1809082
2022-09-07T07:24:23.864Z,79.1809082
2022-09-07T07:25:24.983Z,79.1809082
2022-09-07T07:26:25.398Z,79.1809082
2022-09-07T07:27:26.499Z,79.07714844
2022-09-07T07:29:28.245Z,79.27856445
2022-09-07T07:30:27.799Z,79.27856445
2022-09-07T07:31:28.226Z,79.47998047
2022-09-07T07:32:28.616Z,79.57763672
2022-09-07T07:33:29.016Z,79.47998047
2022-09-07T07:34:29.479Z,79.38232422
2022-09-07T07:35:29.832Z,79.27856445
2022-09-07T07:36:30.984Z,79.27856445
2022-09-07T07:37:31.388Z,79.27856445
2022-09-07T07:39:00.685Z,79.27856445
2022-09-07T07:40:34.155Z,79.44335938
2022-09-07T07:41:58.742Z,79.33959961
2022-09-07T07:42:33.481Z,79.24194336
2022-09-07T07:43:33.995Z,79.04052734
2022-09-07T07:44:34.353Z,78.94287109
2022-09-07T07:45:56.136Z,78.74145508
2022-09-07T07:46:35.261Z,78.64379883
2022-09-07T07:47:35.645Z,78.74145508
2022-09-07T07:48:36.066Z,78.64379883
2022-09-07T07:49:36.453Z,78.64379883
2022-09-07T07:50:36.877Z,78.64379883
2022-09-07T07:53:41.857Z,78.54003906
2022-09-07T07:54:39.783Z,78.40576172
2022-09-07T07:55:43.640Z,78.40576172
2022-09-07T07:56:40.980Z,78.00292969
2022-09-07T07:57:41.650Z,77.60009766
2022-09-07T07:58:42.070Z,77.90527344
2022-09-07T07:59:42.445Z,77.20336914
2022-09-07T08:00:53.686Z,77.09960938
2022-09-07T08:01:43.435Z,77.00195313
2022-09-07T08:02:43.801Z,77.09960938
2022-09-07T08:03:44.163Z,77.00195313
2022-09-07T08:04:44.530Z,77.09960938
2022-09-07T08:05:44.940Z,77.09960938
2022-09-07T08:06:45.396Z,77.06298828
2022-09-07T08:07:46.483Z,76.96533203
2022-09-07T08:08:47.025Z,76.86767578
2022-09-07T08:09:47.414Z,76.66625977
2022-09-07T08:10:47.688Z,76.5625
2022-09-07T08:11:48.125Z,76.3671875
2022-09-07T08:12:48.542Z,76.3671875
2022-09-07T08:13:49.016Z,76.5625
2022-09-07T08:14:49.383Z,76.86767578
2022-09-07T08:15:49.892Z,76.86767578
2022-09-07T08:16:51.059Z,76.12915039
2022-09-07T08:18:21.664Z,75.92773438
2022-09-07T08:19:22.131Z,75.92773438
2022-09-07T08:20:22.527Z,75.92773438
2022-09-07T08:21:22.913Z,76.02539063
2022-09-07T08:22:23.342Z,76.02539063
2022-09-07T08:23:23.777Z,76.12915039
2022-09-07T08:24:24.230Z,76.33056641
2022-09-07T08:25:25.485Z,76.62963867
2022-09-07T08:26:25.882Z,76.62963867
2022-09-07T08:27:27.225Z,76.59301758
2022-09-07T08:28:27.645Z,76.79443359
2022-09-07T08:29:31.236Z,76.89208984
2022-09-07T08:30:28.493Z,77.09350586
2022-09-07T08:31:28.945Z,76.89208984
2022-09-07T08:32:29.336Z,76.79443359
2022-09-07T08:33:29.824Z,76.79443359
2022-09-07T08:34:30.175Z,76.79443359
2022-09-07T08:35:30.659Z,76.7578125
2022-09-07T08:36:31.060Z,76.65405273
2022-09-07T08:37:32.245Z,75.85449219
2022-09-07T08:38:32.649Z,75.45776367
2022-09-07T08:39:33.146Z,75.45776367
2022-09-07T08:40:34.216Z,75.35400391
2022-09-07T08:41:34.607Z,75.45776367
2022-09-07T08:42:35.051Z,75.45776367
2022-09-07T08:43:35.510Z,75.45776367
2022-09-07T08:44:35.944Z,75.35400391
2022-09-07T08:45:37.197Z,75.05493164
2022-09-07T08:46:37.720Z,75.05493164
2022-09-07T08:47:38.720Z,74.82299805
2022-09-07T08:48:39.134Z,74.9206543
2022-09-07T08:49:39.577Z,74.62158203
2022-09-07T08:50:39.949Z,74.62158203
2022-09-07T08:51:40.331Z,74.21875
2022-09-07T08:52:40.775Z,74.21875
2022-09-07T08:53:42.001Z,74.51782227
2022-09-07T08:54:42.484Z,74.12109375
2022-09-07T08:55:42.852Z,73.91967773
2022-09-07T08:57:20.456Z,74.21875
2022-09-07T08:57:44.402Z,74.12109375
2022-09-07T08:58:49.104Z,74.0234375
2022-09-07T08:59:45.290Z,73.82202148
2022-09-07T09:00:46.188Z,73.78540039
2022-09-07T09:02:26.918Z,73.38867188
2022-09-07T09:04:16.283Z,73.38867188
2022-09-07T09:05:17.776Z,73.18725586
2022-09-07T09:05:49.167Z,73.08959961
2022-09-07T09:06:11.621Z,73.48632813
2022-09-07T09:06:49.567Z,72.75390625
2022-09-07T09:08:21.744Z,72.65014648
2022-09-07T09:09:22.166Z,72.25341797
2022-09-07T09:10:22.799Z,72.25341797
2022-09-07T09:11:23.032Z,72.35107422
2022-09-07T09:12:23.430Z,72.75390625
2022-09-07T09:13:23.841Z,72.55249023
2022-09-07T09:14:24.354Z,72.35107422
2022-09-07T09:15:25.254Z,72.35107422
2022-09-07T09:16:25.652Z,72.15576172
2022-09-07T09:17:26.729Z,71.55761719
2022-09-07T09:18:27.248Z,71.55761719
2022-09-07T09:19:27.595Z,71.75292969
2022-09-07T09:20:28.050Z,71.85668945
2022-09-07T09:21:29.204Z,71.42333984
2022-09-07T09:22:29.624Z,70.82519531
2022-09-07T09:23:31.056Z,70.52612305
2022-09-07T09:24:31.460Z,70.12329102
2022-09-07T09:25:31.965Z,70.32470703
2022-09-07T09:26:33.209Z,70.82519531
2022-09-07T09:27:34.183Z,70.6237793
2022-09-07T09:28:35.052Z,70.22705078
2022-09-07T09:29:35.125Z,70.22705078
2022-09-07T09:30:35.567Z,69.82421875
2022-09-07T09:31:36.739Z,69.52514648
2022-09-07T09:32:37.097Z,69.68994141
2022-09-07T09:33:37.538Z,70.5871582
2022-09-07T09:34:37.954Z,69.98901367
2022-09-07T09:35:39.257Z,69.68994141
2022-09-07T09:36:39.631Z,69.89135742
2022-09-07T09:37:40.707Z,69.89135742
2022-09-07T09:38:41.180Z,69.59228516
2022-09-07T09:39:41.776Z,69.59228516
2022-09-07T09:40:42.754Z,70.09277344
2022-09-07T09:41:43.135Z,69.68994141
2022-09-07T09:42:43.550Z,70.09277344
2022-09-07T09:43:43.956Z,69.89135742
2022-09-07T09:44:44.449Z,69.98901367
2022-09-07T09:46:12.831Z,69.49462891
2022-09-07T09:46:45.308Z,69.75708008
2022-09-07T09:47:46.455Z,69.15893555
2022-09-07T09:48:46.758Z,69.15893555
2022-09-07T09:49:47.266Z,69.65942383
2022-09-07T09:52:51.859Z,69.45800781
2022-09-07T09:53:48.926Z,68.96362305
2022-09-07T09:55:34.306Z,68.76220703
2022-09-07T09:56:20.947Z,68.66455078
2022-09-07T09:57:21.322Z,68.66455078
2022-09-07T10:00:30.169Z,68.73168945
2022-09-07T10:01:25.335Z,68.62792969
2022-09-07T10:03:55.716Z,68.53027344
2022-09-07T10:04:25.865Z,68.43261719
2022-09-07T10:05:26.283Z,69.0246582
2022-09-07T10:06:26.745Z,69.12841797
2022-09-07T10:07:28.007Z,69.42749023
2022-09-07T10:08:28.406Z,69.32373047
2022-09-07T10:09:28.883Z,69.0246582
2022-09-07T10:10:29.455Z,68.92700195
2022-09-07T10:12:05.111Z,68.8293457
2022-09-07T10:12:30.313Z,68.99414063
2022-09-07T10:13:30.749Z,68.79272461
2022-09-07T10:14:31.234Z,68.69506836
2022-09-07T10:15:33.658Z,68.99414063
2022-09-07T10:16:32.182Z,68.59741211
2022-09-07T10:17:32.528Z,68.49975586
2022-09-07T10:18:33.057Z,68.69506836
2022-09-07T10:19:33.504Z,68.69506836
2022-09-07T10:20:33.914Z,69.09179688
2022-09-07T10:21:34.356Z,69.19555664
2022-09-07T10:22:34.708Z,68.89648438
2022-09-07T10:23:35.188Z,68.20068359
2022-09-07T10:24:36.265Z,68.39599609
2022-09-07T10:25:36.831Z,68.39599609
2022-09-07T10:26:37.302Z,68.69506836
2022-09-07T10:27:37.668Z,68.96362305
2022-09-07T10:29:06.991Z,68.89648438
2022-09-07T10:29:38.582Z,68.46313477
2022-09-07T10:30:39.169Z,68.66455078
2022-09-07T10:31:39.566Z,69.36035156
2022-09-07T10:32:39.890Z,68.96362305
2022-09-07T10:33:40.464Z,68.56079102
2022-09-07T10:34:40.804Z,68.36547852
2022-09-07T10:35:41.214Z,68.76220703
2022-09-07T10:36:42.253Z,68.85986328
2022-09-07T10:37:43.509Z,69.0612793
2022-09-07T10:38:43.960Z,68.66455078
2022-09-07T10:39:44.418Z,69.15893555
2022-09-07T10:40:44.799Z,69.36035156
2022-09-07T10:41:45.254Z,68.85986328
2022-09-07T10:43:20.721Z,69.15893555
2022-09-07T10:43:46.069Z,68.85986328
2022-09-07T10:44:46.493Z,68.76220703
2022-09-07T10:45:47.750Z,68.36547852
2022-09-07T10:46:58.379Z,68.23120117
2022-09-07T10:47:48.564Z,68.8293457
2022-09-07T10:49:20.287Z,68.03588867
2022-09-07T10:50:22.421Z,68.23120117
2022-09-07T10:51:21.106Z,68.03588867
2022-09-07T10:52:21.525Z,68.32885742
2022-09-07T10:53:40.973Z,67.73681641
2022-09-07T10:54:30.877Z,67.83447266
2022-09-07T10:55:23.397Z,67.73681641
2022-09-07T10:56:23.979Z,67.63305664
2022-09-07T10:57:24.359Z,67.04101563
2022-09-07T10:59:01.383Z,67.23632813
2022-09-07T10:59:25.764Z,67.13867188
2022-09-07T11:00:26.105Z,67.43774414
2022-09-07T11:01:26.557Z,67.53540039
2022-09-07T11:02:26.952Z,67.83447266
2022-09-07T11:03:27.750Z,67.63305664
2022-09-07T11:04:27.779Z,67.73681641
2022-09-07T11:05:33.639Z,67.23632813
2022-09-07T11:06:28.641Z,67.23632813
2022-09-07T11:07:29.056Z,67.53540039
2022-09-07T11:08:30.722Z,67.63305664
2022-09-07T11:09:30.760Z,67.43774414
2022-09-07T11:10:31.183Z,67.56591797
2022-09-07T11:12:01.366Z,67.76733398
2022-09-07T11:12:32.958Z,68.03588867
2022-09-07T11:13:40.971Z,68.53027344
2022-09-07T11:14:33.826Z,68.8293457
2022-09-07T11:15:34.332Z,68.76220703
2022-09-07T11:16:51.046Z,68.76220703